Time;durP1;ratioP1;P1;durP2;ratioP2;P2;SDS_P1;SDS_P2;PMS_P1;PMS_P2;Temp;Humidity;BMP_temperature;BMP_pressure;BME280_temperature;BME280_humidity;BME280_pressure;Samples;Min_cycle;Max_cycle;Signal;HPM_P1;HPM_P2
2022/10/03 00:00:31;;;;;;;8.32;2.70;;;6.50;99.90;;;;;;7335643;32;20111;-60
2022/10/03 00:05:04;;;;;;;8.10;2.28;;;6.40;99.90;;;;;;7338363;32;20546;-59
2022/10/03 00:09:31;;;;;;;9.80;2.17;;;6.40;99.90;;;;;;7348887;32;20111;-60
2022/10/03 00:14:03;;;;;;;9.88;2.75;;;6.40;99.90;;;;;;7340425;32;20210;-59
2022/10/03 00:18:56;;;;;;;6.32;2.15;;;6.40;99.90;;;;;;7337142;32;20157;-60
2022/10/03 00:23:13;;;;;;;8.77;2.50;;;6.30;99.90;;;;;;7324761;32;20124;-60
2022/10/03 00:27:27;;;;;;;6.93;2.37;;;6.30;99.90;;;;;;7348486;32;20111;-60
2022/10/03 00:31:57;;;;;;;7.45;2.33;;;6.20;99.90;;;;;;7346114;32;20127;-61
2022/10/03 00:36:02;;;;;;;5.43;2.12;;;6.20;99.90;;;;;;7345584;32;20541;-60
2022/10/03 00:40:12;;;;;;;7.75;2.37;;;6.20;99.90;;;;;;7344342;32;20149;-60
2022/10/03 00:44:39;;;;;;;14.80;2.37;;;6.20;99.90;;;;;;7349227;32;20520;-60
2022/10/03 00:49:14;;;;;;;13.25;2.58;;;6.10;99.90;;;;;;7347891;32;20115;-60
2022/10/03 00:53:45;;;;;;;8.10;2.30;;;6.10;99.90;;;;;;7346782;32;20462;-60
2022/10/03 00:58:05;;;;;;;6.72;2.05;;;6.10;99.90;;;;;;7339906;32;20207;-60
2022/10/03 01:02:23;;;;;;;11.98;1.90;;;6.10;99.90;;;;;;7354592;32;20827;-62
2022/10/03 01:06:35;;;;;;;4.68;2.05;;;6.00;99.90;;;;;;7353260;32;20146;-60
2022/10/03 01:10:56;;;;;;;7.62;2.47;;;6.00;99.90;;;;;;7351789;32;20133;-60
2022/10/03 01:15:18;;;;;;;9.52;2.17;;;6.00;99.90;;;;;;7350122;32;20546;-60
2022/10/03 01:19:23;;;;;;;6.10;2.25;;;6.00;99.90;;;;;;7347357;32;20142;-60
2022/10/03 01:24:08;;;;;;;12.90;2.80;;;5.90;99.90;;;;;;7348221;32;20115;-60
2022/10/03 01:33:29;;;;;;;5.72;2.60;;;5.90;99.90;;;;;;7345646;32;20142;-60
2022/10/03 01:37:48;;;;;;;10.02;2.70;;;5.80;99.90;;;;;;7293573;32;20199;-59
2022/10/03 01:42:00;;;;;;;5.60;1.95;;;5.70;99.90;;;;;;7332145;32;20378;-60
2022/10/03 01:46:16;;;;;;;7.03;2.35;;;5.70;99.90;;;;;;7356060;32;20123;-59
2022/10/03 01:50:35;;;;;;;6.15;2.30;;;5.70;99.90;;;;;;7337379;32;20569;-60
2022/10/03 01:54:58;;;;;;;11.95;2.58;;;5.60;99.90;;;;;;7349375;32;20436;-60
2022/10/03 01:59:06;;;;;;;6.35;2.10;;;5.70;99.90;;;;;;7353377;32;20111;-60
2022/10/03 02:03:24;;;;;;;9.82;2.60;;;5.60;99.90;;;;;;7346722;32;20237;-60
2022/10/03 02:07:46;;;;;;;5.60;2.53;;;5.60;99.90;;;;;;7341066;32;20103;-61
2022/10/03 02:11:49;;;;;;;6.22;2.25;;;5.60;99.90;;;;;;7342242;32;20104;-60
2022/10/03 02:16:28;;;;;;;8.80;2.40;;;5.60;99.90;;;;;;7348054;32;20142;-60
2022/10/03 02:20:48;;;;;;;7.28;1.83;;;5.60;99.90;;;;;;7343531;32;20107;-60
2022/10/03 02:25:09;;;;;;;9.40;2.25;;;5.60;99.90;;;;;;7358924;32;20110;-60
2022/10/03 02:29:45;;;;;;;5.60;2.17;;;5.60;99.90;;;;;;7344746;32;20186;-60
2022/10/03 02:34:21;;;;;;;15.30;2.12;;;5.60;99.90;;;;;;7354385;32;20624;-61
2022/10/03 02:38:35;;;;;;;5.35;2.08;;;5.50;99.90;;;;;;7341022;32;20658;-60
2022/10/03 02:42:50;;;;;;;5.03;2.10;;;5.50;99.90;;;;;;7346137;32;20225;-61
2022/10/03 02:47:23;;;;;;;8.32;2.50;;;5.50;99.90;;;;;;7343821;32;20133;-59
2022/10/03 02:51:37;;;;;;;10.38;2.22;;;5.50;99.90;;;;;;7353991;32;20444;-59
2022/10/03 02:55:57;;;;;;;7.47;2.40;;;5.40;99.90;;;;;;7342379;32;20111;-59
2022/10/03 03:00:10;;;;;;;4.65;2.12;;;5.40;99.90;;;;;;7334933;32;20137;-59
2022/10/03 03:04:36;;;;;;;6.57;2.20;;;5.30;99.90;;;;;;7346778;32;20538;-59
2022/10/03 03:09:24;;;;;;;10.00;2.60;;;5.30;99.90;;;;;;7345877;32;20111;-60
2022/10/03 03:13:50;;;;;;;7.10;2.30;;;5.30;99.90;;;;;;7344799;32;20357;-61
2022/10/03 03:18:14;;;;;;;9.25;2.67;;;5.30;99.90;;;;;;7336306;32;20444;-60
2022/10/03 03:22:26;;;;;;;7.35;1.92;;;5.30;99.90;;;;;;7345560;32;20115;-59
2022/10/03 03:26:50;;;;;;;4.72;2.35;;;5.40;99.90;;;;;;7345838;32;20224;-60
2022/10/03 03:30:58;;;;;;;5.97;2.30;;;5.40;99.90;;;;;;7341017;32;20130;-60
2022/10/03 03:35:32;;;;;;;4.78;2.25;;;5.40;99.90;;;;;;7342217;32;20103;-60
2022/10/03 03:40:12;;;;;;;3.97;2.15;;;5.40;99.90;;;;;;7348273;32;20126;-60
2022/10/03 03:44:53;;;;;;;5.95;3.58;;;5.50;99.90;;;;;;7347983;32;20127;-60
2022/10/03 03:49:23;;;;;;;11.45;2.78;;;5.60;99.90;;;;;;7337710;32;20100;-60
2022/10/03 03:54:02;;;;;;;7.03;2.83;;;5.80;99.90;;;;;;7343729;32;20108;-60
2022/10/03 03:58:46;;;;;;;7.80;2.42;;;5.80;99.90;;;;;;7340896;32;20125;-60
2022/10/03 04:03:13;;;;;;;6.22;2.42;;;5.90;99.90;;;;;;7347179;32;20202;-60
2022/10/03 04:07:35;;;;;;;8.88;2.55;;;6.00;99.90;;;;;;7353160;32;20133;-59
2022/10/03 04:11:52;;;;;;;5.47;2.20;;;6.10;99.90;;;;;;7352154;32;20619;-61
2022/10/03 04:16:06;;;;;;;12.30;4.12;;;6.10;99.90;;;;;;7346034;32;20099;-60
2022/10/03 04:20:30;;;;;;;10.90;2.95;;;6.10;99.90;;;;;;7349262;32;20298;-60
2022/10/03 04:24:37;;;;;;;8.20;3.08;;;6.20;99.90;;;;;;7341168;32;20125;-59
2022/10/03 04:29:10;;;;;;;10.35;2.85;;;6.30;99.90;;;;;;7351055;32;20099;-60
2022/10/03 04:33:31;;;;;;;11.55;2.92;;;6.40;99.90;;;;;;7356172;32;20104;-60
2022/10/03 04:37:43;;;;;;;8.68;2.92;;;6.40;99.90;;;;;;7349530;32;20099;-60
2022/10/03 04:41:54;;;;;;;7.47;2.95;;;6.50;99.90;;;;;;7348343;32;20507;-60
2022/10/03 04:46:13;;;;;;;6.30;3.05;;;6.60;99.90;;;;;;7352026;32;20100;-60
2022/10/03 04:50:21;;;;;;;8.80;3.22;;;6.60;99.90;;;;;;7351989;32;20177;-60
2022/10/03 04:54:34;;;;;;;4.55;3.00;;;6.70;99.90;;;;;;7351885;32;20103;-60
2022/10/03 04:58:41;;;;;;;10.63;3.40;;;6.80;99.90;;;;;;7348495;32;20121;-59
2022/10/03 05:03:21;;;;;;;8.10;3.05;;;6.80;99.90;;;;;;7345281;32;20123;-59
2022/10/03 05:07:45;;;;;;;13.02;4.37;;;6.90;99.90;;;;;;7343316;32;20542;-60
2022/10/03 05:11:53;;;;;;;10.40;4.95;;;6.90;99.90;;;;;;7350475;32;20123;-60
2022/10/03 05:16:27;;;;;;;12.63;4.72;;;6.90;99.90;;;;;;7355893;32;20237;-60
2022/10/03 05:20:50;;;;;;;7.95;4.37;;;7.00;99.90;;;;;;7323518;32;20178;-60
2022/10/03 05:25:10;;;;;;;10.25;4.82;;;7.00;99.90;;;;;;7340070;32;20270;-60
2022/10/03 05:29:25;;;;;;;10.63;4.45;;;7.10;99.90;;;;;;7342082;32;20115;-60
2022/10/03 05:33:45;;;;;;;10.45;3.62;;;7.10;99.90;;;;;;7356535;32;20175;-61
2022/10/03 05:38:09;;;;;;;11.50;3.65;;;7.00;99.90;;;;;;7339214;32;20176;-61
2022/10/03 05:42:32;;;;;;;7.00;3.75;;;7.10;99.90;;;;;;7345448;32;20255;-60
2022/10/03 05:46:58;;;;;;;13.07;3.80;;;7.10;99.90;;;;;;7346438;32;20119;-61
2022/10/03 05:51:21;;;;;;;7.45;3.42;;;7.10;99.90;;;;;;7354570;32;20114;-61
2022/10/03 05:55:56;;;;;;;11.18;4.20;;;7.20;99.90;;;;;;7345172;32;20208;-60
2022/10/03 06:00:07;;;;;;;6.50;4.28;;;7.20;99.90;;;;;;7344715;32;20190;-60
2022/10/03 06:04:29;;;;;;;8.18;4.60;;;7.30;99.90;;;;;;7351051;32;20202;-60
2022/10/03 06:08:50;;;;;;;24.48;4.65;;;7.30;99.90;;;;;;7350438;32;20589;-60
2022/10/03 06:13:23;;;;;;;11.52;4.12;;;7.40;99.90;;;;;;7348435;32;20108;-61
2022/10/03 06:18:09;;;;;;;9.30;4.43;;;7.50;99.90;;;;;;7354936;32;20177;-63
2022/10/03 06:22:32;;;;;;;12.90;5.28;;;7.60;99.90;;;;;;7278516;32;20276;-63
2022/10/03 06:26:48;;;;;;;10.35;4.60;;;7.70;99.90;;;;;;7321320;32;20213;-63
2022/10/03 06:31:10;;;;;;;10.63;5.05;;;7.80;99.90;;;;;;7345134;32;20196;-63
2022/10/03 06:35:49;;;;;;;11.35;5.18;;;7.90;99.90;;;;;;7351423;32;20183;-63
2022/10/03 06:40:08;;;;;;;11.00;5.62;;;8.10;99.90;;;;;;7347860;32;20119;-63
2022/10/03 06:44:43;;;;;;;12.07;5.90;;;8.20;99.90;;;;;;7346509;32;20223;-64
2022/10/03 06:49:28;;;;;;;16.00;7.85;;;8.40;99.90;;;;;;7344308;32;20263;-63
2022/10/03 06:53:39;;;;;;;22.40;9.40;;;8.60;99.90;;;;;;7346247;32;20190;-64
2022/10/03 06:58:03;;;;;;;26.17;10.43;;;8.70;99.90;;;;;;7344358;32;20162;-63
2022/10/03 07:02:23;;;;;;;16.62;9.85;;;8.70;99.90;;;;;;7339694;32;20138;-64
2022/10/03 07:06:53;;;;;;;18.40;9.05;;;8.90;99.90;;;;;;7347163;32;20116;-64
2022/10/03 07:11:28;;;;;;;20.48;10.13;;;9.10;99.90;;;;;;7345723;32;20179;-63
2022/10/03 07:15:51;;;;;;;25.62;10.45;;;9.30;99.90;;;;;;7322534;32;20115;-64
2022/10/03 07:20:51;;;;;;;21.67;10.40;;;9.40;99.90;;;;;;7338870;32;20536;-64
2022/10/03 07:25:27;;;;;;;25.27;10.65;;;9.70;99.90;;;;;;7340630;32;20233;-63
2022/10/03 07:29:41;;;;;;;23.73;10.57;;;9.90;99.90;;;;;;7342348;32;20217;-64
2022/10/03 07:34:14;;;;;;;22.08;8.90;;;10.00;99.90;;;;;;7341821;32;20142;-66
2022/10/03 07:39:02;;;;;;;16.60;7.78;;;10.20;99.90;;;;;;7347071;32;20514;-64
2022/10/03 07:43:37;;;;;;;21.95;8.50;;;10.40;99.90;;;;;;7330508;32;20464;-63
2022/10/03 07:48:00;;;;;;;16.62;7.62;;;10.40;99.90;;;;;;7343415;32;20198;-64
2022/10/03 07:52:11;;;;;;;18.35;8.05;;;10.60;99.90;;;;;;7338489;32;20108;-65
2022/10/03 07:56:41;;;;;;;16.08;7.80;;;10.60;99.90;;;;;;7345041;32;20125;-66
2022/10/03 08:01:08;;;;;;;21.90;7.75;;;10.80;99.90;;;;;;7350018;32;20153;-64
2022/10/03 08:05:40;;;;;;;24.23;7.82;;;10.90;99.90;;;;;;7337414;32;20206;-64
2022/10/03 08:10:03;;;;;;;20.35;6.65;;;11.00;99.90;;;;;;7333985;32;20261;-64
2022/10/03 08:14:23;;;;;;;15.52;6.93;;;11.00;99.90;;;;;;7333264;32;20464;-64
2022/10/03 08:18:50;;;;;;;14.50;7.20;;;11.20;99.90;;;;;;7335662;32;20119;-64
2022/10/03 08:23:15;;;;;;;15.90;6.35;;;11.40;99.90;;;;;;7342428;32;20134;-64
2022/10/03 08:27:31;;;;;;;15.05;6.55;;;11.50;99.90;;;;;;7333665;32;20134;-64
2022/10/03 08:31:42;;;;;;;12.88;5.93;;;11.60;99.90;;;;;;7340244;32;20145;-64
2022/10/03 08:36:33;;;;;;;14.82;6.57;;;11.60;99.90;;;;;;7336121;32;20119;-64
2022/10/03 08:41:04;;;;;;;22.83;6.95;;;11.60;99.90;;;;;;7325661;32;20242;-64
2022/10/03 08:45:39;;;;;;;14.82;6.93;;;11.70;99.90;;;;;;7347572;32;20104;-60
2022/10/03 08:50:22;;;;;;;14.75;6.35;;;11.80;99.90;;;;;;7351058;32;20143;-61
2022/10/03 08:54:46;;;;;;;13.38;6.70;;;12.00;99.90;;;;;;7349917;32;20114;-63
2022/10/03 08:58:47;;;;;;;16.80;7.28;;;12.00;99.90;;;;;;7340970;32;20135;-63
2022/10/03 09:03:01;;;;;;;14.10;6.22;;;12.00;99.90;;;;;;7345412;32;20198;-64
2022/10/03 09:07:47;;;;;;;17.80;6.82;;;12.20;99.90;;;;;;7343495;32;20103;-63
2022/10/03 09:12:11;;;;;;;15.50;6.50;;;12.30;99.90;;;;;;7347293;32;20642;-63
2022/10/03 09:16:43;;;;;;;21.27;6.37;;;12.60;99.90;;;;;;7340665;32;20256;-63
2022/10/03 09:21:10;;;;;;;17.83;5.97;;;12.70;99.90;;;;;;7352137;32;20293;-63
2022/10/03 09:25:49;;;;;;;17.67;5.68;;;12.80;99.90;;;;;;7344759;32;20115;-63
2022/10/03 09:30:10;;;;;;;14.20;5.60;;;13.00;99.90;;;;;;7349155;32;20121;-64
2022/10/03 09:34:23;;;;;;;11.25;5.05;;;13.50;99.90;;;;;;7342360;32;20250;-64
2022/10/03 09:38:48;;;;;;;14.23;4.90;;;14.40;99.90;;;;;;7348431;32;20127;-65
2022/10/03 09:43:40;;;;;;;12.93;3.62;;;16.20;99.90;;;;;;7348924;32;20099;-63
2022/10/03 09:47:48;;;;;;;8.30;3.45;;;17.60;99.90;;;;;;7278216;32;20775;-64
2022/10/03 09:51:56;;;;;;;15.43;3.87;;;18.40;99.90;;;;;;7344574;32;20141;-63
2022/10/03 09:56:46;;;;;;;15.10;3.70;;;19.00;99.90;;;;;;7343038;32;20130;-63
2022/10/03 10:00:57;;;;;;;14.02;2.67;;;19.50;99.90;;;;;;7346820;32;20124;-64
2022/10/03 10:05:11;;;;;;;10.07;3.10;;;19.60;99.90;;;;;;7354323;32;20206;-65
2022/10/03 10:09:47;;;;;;;9.63;2.33;;;19.60;99.90;;;;;;7341129;32;20245;-63
2022/10/03 10:14:17;;;;;;;8.70;3.00;;;19.30;99.90;;;;;;7342924;32;20832;-63
2022/10/03 10:18:58;;;;;;;12.55;3.30;;;18.90;99.90;;;;;;7342209;32;20264;-63
2022/10/03 10:23:17;;;;;;;12.50;4.00;;;18.40;99.90;;;;;;7348029;32;20523;-62
2022/10/03 10:27:31;;;;;;;15.10;3.62;;;17.70;99.90;;;;;;7344329;32;20121;-63
2022/10/03 10:32:06;;;;;;;13.80;3.37;;;16.40;99.90;;;;;;7347333;32;20122;-63
2022/10/03 10:36:39;;;;;;;13.27;2.72;;;16.20;99.90;;;;;;7344601;32;20106;-63
2022/10/03 10:41:27;;;;;;;13.90;2.30;;;15.50;99.90;;;;;;7343846;32;20107;-63
2022/10/03 10:46:03;;;;;;;9.68;1.92;;;15.40;99.90;;;;;;7351095;32;20220;-63
2022/10/03 10:50:23;;;;;;;7.97;1.85;;;15.60;99.90;;;;;;7337529;32;20534;-63
2022/10/03 10:54:41;;;;;;;5.28;1.50;;;15.70;99.90;;;;;;7346642;32;20103;-63
2022/10/03 10:59:20;;;;;;;8.27;1.85;;;15.70;99.90;;;;;;7340667;32;20671;-63
2022/10/03 11:03:41;;;;;;;11.10;2.10;;;15.50;99.90;;;;;;7342290;32;20130;-63
2022/10/03 11:08:15;;;;;;;9.25;1.45;;;15.60;99.90;;;;;;7341551;32;20186;-63
2022/10/03 11:13:08;;;;;;;9.57;1.85;;;15.50;99.90;;;;;;7348886;32;20503;-64
2022/10/03 11:17:50;;;;;;;11.38;1.77;;;15.50;99.90;;;;;;7341129;32;20206;-63
2022/10/03 11:22:20;;;;;;;7.22;1.62;;;15.60;99.90;;;;;;7345326;32;20111;-65
2022/10/03 11:26:59;;;;;;;7.50;1.67;;;15.50;99.90;;;;;;7343612;32;20149;-64
2022/10/03 11:31:09;;;;;;;6.62;1.70;;;15.40;99.90;;;;;;7346955;32;20137;-64
2022/10/03 11:35:29;;;;;;;6.95;1.62;;;15.40;99.90;;;;;;7356161;32;20133;-64
2022/10/03 11:39:43;;;;;;;6.35;1.90;;;15.30;99.90;;;;;;7348714;32;20111;-64
2022/10/03 11:44:03;;;;;;;11.98;3.12;;;15.40;99.90;;;;;;7339953;32;20115;-64
2022/10/03 11:48:32;;;;;;;10.25;2.40;;;15.50;99.90;;;;;;7347048;32;20111;-63
2022/10/03 11:52:55;;;;;;;9.98;2.60;;;15.70;99.90;;;;;;7340589;32;20216;-64
2022/10/03 11:57:08;;;;;;;8.38;2.37;;;15.80;99.90;;;;;;7339089;32;21275;-65
2022/10/03 12:01:48;;;;;;;10.73;2.72;;;15.80;99.90;;;;;;7331732;32;20229;-65
2022/10/03 12:10:56;;;;;;;9.23;1.77;;;16.30;99.90;;;;;;7334215;32;20270;-59
2022/10/03 12:15:18;;;;;;;7.72;2.00;;;16.50;99.90;;;;;;7357200;32;20194;-66
2022/10/03 12:19:52;;;;;;;7.72;1.50;;;16.60;99.90;;;;;;7340011;32;20904;-65
2022/10/03 12:24:23;;;;;;;8.73;2.00;;;16.70;99.90;;;;;;7342378;32;20121;-64
2022/10/03 12:28:41;;;;;;;6.35;1.40;;;16.80;99.90;;;;;;7343232;32;20133;-65
2022/10/03 12:33:01;;;;;;;;;;;16.90;99.90;;;;;;7343887;32;20146;-66
2022/10/03 12:37:41;;;;;;;7.00;1.23;;;16.80;99.90;;;;;;7347623;32;20021;-64
2022/10/03 12:42:11;;;;;;;5.20;1.20;;;16.60;99.90;;;;;;7349670;32;20112;-65
2022/10/03 12:47:00;;;;;;;8.30;1.30;;;16.40;99.90;;;;;;7350477;32;20115;-65
2022/10/03 12:51:25;;;;;;;7.50;1.33;;;16.50;99.90;;;;;;7283063;32;20195;-65
2022/10/03 12:55:32;;;;;;;6.93;1.17;;;16.40;99.90;;;;;;7351688;32;20131;-65
2022/10/03 12:59:44;;;;;;;5.72;1.27;;;16.50;99.90;;;;;;7342114;32;20233;-65
2022/10/03 13:04:17;;;;;;;5.20;1.20;;;16.60;99.90;;;;;;7348567;32;20198;-60
2022/10/03 13:08:34;;;;;;;6.57;1.42;;;16.50;99.90;;;;;;7342698;32;20141;-66
2022/10/03 13:12:48;;;;;;;9.27;2.00;;;16.60;99.90;;;;;;7348467;32;20107;-66
2022/10/03 13:17:07;;;;;;;10.07;2.08;;;16.40;99.90;;;;;;7352053;32;20170;-65
2022/10/03 13:21:18;;;;;;;7.87;1.65;;;16.40;99.90;;;;;;7340547;32;20103;-65
2022/10/03 13:26:01;;;;;;;9.85;1.90;;;16.20;99.90;;;;;;7351673;32;20206;-65
2022/10/03 13:30:19;;;;;;;7.72;1.90;;;16.10;99.90;;;;;;7349568;32;20255;-65
2022/10/03 13:34:29;;;;;;;7.75;1.77;;;16.10;99.90;;;;;;7346953;32;20550;-65
2022/10/03 13:38:50;;;;;;;6.50;1.60;;;16.00;99.90;;;;;;7349625;32;20129;-65
2022/10/03 13:42:53;;;;;;;8.57;1.67;;;16.20;99.90;;;;;;7339589;32;20134;-64
2022/10/03 13:47:09;;;;;;;4.93;1.80;;;16.30;99.90;;;;;;7340736;32;20488;-64
2022/10/03 13:51:38;;;;;;;4.70;1.30;;;16.60;99.90;;;;;;7346699;32;20111;-65
2022/10/03 13:55:41;;;;;;;5.07;1.20;;;16.70;99.90;;;;;;7342215;32;20546;-66
2022/10/03 14:00:10;;;;;;;6.65;1.00;;;17.00;99.90;;;;;;7350677;32;20111;-67
2022/10/03 14:04:49;;;;;;;7.50;1.00;;;17.40;99.90;;;;;;7341306;32;20116;-65
2022/10/03 14:09:03;;;;;;;6.82;2.20;;;17.50;99.90;;;;;;7346407;32;20111;-65
2022/10/03 14:13:42;;;;;;;7.90;3.78;;;17.60;99.90;;;;;;7344080;32;20127;-64
2022/10/03 14:18:05;;;;;;;9.43;4.20;;;18.00;99.90;;;;;;7340856;32;20130;-65
2022/10/03 14:22:28;;;;;;;10.57;1.80;;;18.20;99.90;;;;;;7354134;32;20103;-64
2022/10/03 14:26:30;;;;;;;7.87;1.50;;;18.10;99.90;;;;;;7344031;32;20206;-65
2022/10/03 14:31:07;;;;;;;10.25;5.60;;;17.80;99.90;;;;;;7338168;32;20225;-63
2022/10/03 14:35:50;;;;;;;8.10;3.42;;;17.50;99.90;;;;;;7349955;32;20119;-64
2022/10/03 14:40:14;;;;;;;5.50;1.52;;;17.00;99.90;;;;;;7346510;32;20595;-64
2022/10/03 14:44:24;;;;;;;8.55;3.87;;;16.90;99.90;;;;;;7348846;32;20209;-65
2022/10/03 14:48:36;;;;;;;5.32;1.55;;;16.70;99.90;;;;;;7349674;32;20141;-64
2022/10/03 14:52:47;;;;;;;5.72;1.77;;;16.70;99.90;;;;;;7340289;32;20107;-62
2022/10/03 14:56:50;;;;;;;4.62;1.15;;;16.70;99.90;;;;;;7349726;32;20107;-63
2022/10/03 15:01:14;;;;;;;6.03;1.70;;;16.50;99.90;;;;;;7340013;32;20112;-62
2022/10/03 15:05:35;;;;;;;5.72;1.50;;;16.50;99.90;;;;;;7342894;32;20193;-63
2022/10/03 15:09:40;;;;;;;4.35;1.52;;;16.30;99.90;;;;;;7341535;32;20115;-64
2022/10/03 15:13:53;;;;;;;4.97;1.50;;;16.20;99.90;;;;;;7346399;32;20134;-67
2022/10/03 15:18:02;;;;;;;4.37;1.42;;;16.00;99.90;;;;;;7340286;32;20459;-65
2022/10/03 15:22:21;;;;;;;8.45;1.85;;;15.80;99.90;;;;;;7345762;32;20103;-64
2022/10/03 15:26:25;;;;;;;5.75;1.00;;;15.70;99.90;;;;;;7347267;32;20235;-64
2022/10/03 15:30:31;;;;;;;7.72;1.37;;;15.60;99.90;;;;;;7354391;32;20107;-64
2022/10/03 15:34:38;;;;;;;6.87;2.00;;;15.40;99.90;;;;;;7349390;32;20175;-64
2022/10/03 15:38:41;;;;;;;;;;;15.40;99.90;;;;;;7346815;32;20198;-65
2022/10/03 15:42:53;;;;;;;6.07;2.25;;;15.30;99.90;;;;;;7348843;32;20112;-65
2022/10/03 15:47:15;;;;;;;3.30;1.60;;;15.20;99.90;;;;;;7343149;32;20120;-64
2022/10/03 15:51:21;;;;;;;5.15;1.27;;;15.10;99.90;;;;;;7349647;32;20141;-65
2022/10/03 15:55:37;;;;;;;7.20;1.20;;;15.10;99.90;;;;;;7348095;32;20519;-64
2022/10/03 15:59:44;;;;;;;6.72;1.10;;;15.00;99.90;;;;;;7341821;32;20542;-64
2022/10/03 16:04:01;;;;;;;4.15;1.08;;;14.90;99.90;;;;;;7336845;32;20246;-64
2022/10/03 16:08:14;;;;;;;5.93;1.12;;;14.80;99.90;;;;;;7342013;32;20115;-65
2022/10/03 16:12:36;;;;;;;9.15;1.48;;;14.80;99.90;;;;;;7341345;32;20138;-64
2022/10/03 16:16:44;;;;;;;6.25;1.67;;;14.80;99.90;;;;;;7352665;32;20145;-64
2022/10/03 16:20:54;;;;;;;5.62;1.05;;;14.70;99.90;;;;;;7348741;32;20115;-64
2022/10/03 16:25:08;;;;;;;3.28;1.23;;;14.70;99.90;;;;;;7338840;32;20111;-64
2022/10/03 16:29:22;;;;;;;5.12;1.52;;;14.60;99.90;;;;;;7350570;32;20126;-64
2022/10/03 16:33:31;;;;;;;12.40;6.68;;;14.60;99.90;;;;;;7344379;32;20111;-64
2022/10/03 16:37:39;;;;;;;7.55;2.17;;;14.40;99.90;;;;;;7341732;32;20111;-64
2022/10/03 16:41:42;;;;;;;5.70;1.48;;;14.30;99.90;;;;;;7339556;32;20217;-64
2022/10/03 16:45:45;;;;;;;8.60;1.50;;;14.20;99.90;;;;;;7349683;32;20142;-64
2022/10/03 16:54:19;;;;;;;14.20;2.10;;;13.90;99.90;;;;;;7349263;32;20107;-64
2022/10/03 16:58:28;;;;;;;5.45;1.80;;;13.70;99.90;;;;;;7349732;32;20111;-64
2022/10/03 17:02:30;;;;;;;7.37;2.10;;;13.60;99.90;;;;;;7346976;32;20115;-64
2022/10/03 17:06:36;;;;;;;6.47;2.65;;;13.40;99.90;;;;;;7344721;32;20534;-65
2022/10/03 17:10:39;;;;;;;6.72;2.30;;;13.30;99.90;;;;;;7349570;32;20178;-64
2022/10/03 17:14:43;;;;;;;6.22;1.95;;;13.10;99.90;;;;;;7345707;32;20193;-64
2022/10/03 17:19:07;;;;;;;17.73;12.55;;;12.90;99.90;;;;;;7336989;32;20222;-62
2022/10/03 17:23:34;;;;;;;8.77;3.37;;;12.70;99.90;;;;;;7350676;32;20441;-62
2022/10/03 17:27:39;;;;;;;7.85;2.10;;;12.60;99.90;;;;;;7341077;32;20177;-61
2022/10/03 17:31:58;;;;;;;9.15;3.33;;;12.40;99.90;;;;;;7344843;32;20230;-61
2022/10/03 17:36:48;;;;;;;12.10;2.70;;;12.20;99.90;;;;;;7350123;32;20185;-62
2022/10/03 17:41:14;;;;;;;7.95;2.17;;;12.10;99.90;;;;;;7350438;32;20220;-62
2022/10/03 17:46:08;;;;;;;13.40;7.62;;;11.90;99.90;;;;;;7350067;32;20136;-61
2022/10/03 17:50:35;;;;;;;12.20;3.50;;;11.80;99.90;;;;;;7330951;32;20162;-61
2022/10/03 17:54:39;;;;;;;7.78;3.78;;;11.70;99.90;;;;;;7345021;32;20103;-62
2022/10/03 17:58:46;;;;;;;10.63;4.55;;;11.50;99.90;;;;;;7343131;32;20197;-61
2022/10/03 18:03:00;;;;;;;8.05;3.30;;;11.40;99.90;;;;;;7343425;32;20142;-62
2022/10/03 18:07:17;;;;;;;14.95;4.62;;;11.30;99.90;;;;;;7346151;32;20471;-61
2022/10/03 18:11:23;;;;;;;12.25;2.42;;;11.20;99.90;;;;;;7342512;32;20119;-61
2022/10/03 18:16:03;;;;;;;10.20;1.95;;;11.10;99.90;;;;;;7340566;32;20225;-62
2022/10/03 18:20:26;;;;;;;6.75;2.35;;;11.00;99.90;;;;;;7344497;32;20511;-62
2022/10/03 18:25:56;;;;;;;8.77;2.33;;;10.90;99.90;;;;;;7342665;32;20115;-62
2022/10/03 18:29:41;;;;;;;8.38;2.42;;;10.80;99.90;;;;;;7343942;32;20624;-64
2022/10/03 18:33:58;;;;;;;7.57;2.03;;;10.70;99.90;;;;;;7347508;32;20133;-62
2022/10/03 18:38:05;;;;;;;6.87;2.70;;;10.70;99.90;;;;;;7341869;32;20111;-62
2022/10/03 18:42:10;;;;;;;8.13;2.47;;;10.60;99.90;;;;;;7349664;32;20222;-62
2022/10/03 18:46:29;;;;;;;8.55;3.28;;;10.60;99.90;;;;;;7338402;32;20111;-63
2022/10/03 18:51:05;;;;;;;12.00;4.50;;;10.40;99.90;;;;;;7342662;32;20134;-63
2022/10/03 18:55:18;;;;;;;11.52;4.70;;;10.40;99.90;;;;;;7349746;32;20111;-63
2022/10/03 18:59:32;;;;;;;15.05;4.43;;;10.40;99.90;;;;;;7343195;32;20137;-61
2022/10/03 19:03:52;;;;;;;11.50;4.00;;;10.30;99.90;;;;;;7343501;32;20194;-64
2022/10/03 19:08:23;;;;;;;7.62;3.55;;;10.20;99.90;;;;;;7343583;32;20633;-63
2022/10/03 19:12:32;;;;;;;8.93;3.55;;;10.20;99.90;;;;;;7342252;32;20114;-63
2022/10/03 19:16:39;;;;;;;8.52;3.67;;;10.20;99.90;;;;;;7340520;32;20240;-61
2022/10/03 19:20:44;;;;;;;13.40;3.28;;;10.10;99.90;;;;;;7348586;32;20199;-61
2022/10/03 19:24:49;;;;;;;11.00;4.47;;;10.10;99.90;;;;;;7346231;32;20230;-59
2022/10/03 19:29:04;;;;;;;10.43;3.97;;;10.10;99.90;;;;;;7351541;32;20459;-62
2022/10/03 19:33:13;;;;;;;9.30;4.00;;;10.10;99.90;;;;;;7347950;32;20522;-61
2022/10/03 19:37:40;;;;;;;8.85;4.30;;;10.10;99.90;;;;;;7342163;32;20696;-60
2022/10/03 19:41:52;;;;;;;8.80;4.20;;;10.10;99.90;;;;;;7350723;32;20108;-61
2022/10/03 19:46:16;;;;;;;10.98;3.90;;;10.10;99.90;;;;;;7348111;32;20107;-64
2022/10/03 19:50:36;;;;;;;7.40;4.30;;;10.10;99.90;;;;;;7352268;32;20157;-62
2022/10/03 19:54:53;;;;;;;8.73;3.50;;;10.10;99.90;;;;;;7352946;32;20137;-61
2022/10/03 19:59:12;;;;;;;7.93;4.40;;;10.10;99.90;;;;;;7340993;32;20187;-61
2022/10/03 20:03:45;;;;;;;11.57;4.60;;;10.00;99.90;;;;;;7345362;32;20111;-61
2022/10/03 20:07:59;;;;;;;11.20;4.28;;;10.00;99.90;;;;;;7335790;32;20500;-61
2022/10/03 20:12:10;;;;;;;9.85;3.85;;;9.90;99.90;;;;;;7342748;32;20142;-61
2022/10/03 20:16:22;;;;;;;11.32;3.70;;;9.90;99.90;;;;;;7339824;32;20245;-61
2022/10/03 20:20:24;;;;;;;8.95;3.62;;;9.80;99.90;;;;;;7351067;32;20200;-61
2022/10/03 20:24:36;;;;;;;12.57;6.37;;;9.70;99.90;;;;;;7339792;32;20226;-61
2022/10/03 20:28:54;;;;;;;9.25;3.97;;;9.70;99.90;;;;;;7345354;32;20124;-62
2022/10/03 20:32:58;;;;;;;9.20;3.72;;;9.60;99.90;;;;;;7331507;32;20157;-61
2022/10/03 20:37:28;;;;;;;13.27;5.28;;;9.50;99.90;;;;;;7348638;32;20153;-62
2022/10/03 20:41:42;;;;;;;13.30;5.15;;;9.40;99.90;;;;;;7343641;32;20503;-62
2022/10/03 20:45:49;;;;;;;9.85;4.72;;;9.40;99.90;;;;;;7353347;32;20112;-62
2022/10/03 20:50:19;;;;;;;9.30;4.00;;;9.30;99.90;;;;;;7352899;32;20573;-62
2022/10/03 20:54:24;;;;;;;9.85;3.95;;;9.20;99.90;;;;;;7354675;32;20198;-61
2022/10/03 20:58:38;;;;;;;8.00;4.37;;;9.20;99.90;;;;;;7352012;32;20558;-61
2022/10/03 21:03:04;;;;;;;10.63;4.87;;;9.10;99.90;;;;;;7350897;32;20134;-63
2022/10/03 21:07:27;;;;;;;9.45;4.15;;;9.10;99.90;;;;;;7351015;32;20133;-64
2022/10/03 21:11:32;;;;;;;10.23;3.97;;;9.00;99.90;;;;;;7350008;32;20137;-62
2022/10/03 21:15:39;;;;;;;13.45;4.70;;;9.00;99.90;;;;;;7348447;32;20187;-62
2022/10/03 21:20:06;;;;;;;9.75;4.45;;;8.90;99.90;;;;;;7343219;32;20249;-63
2022/10/03 21:24:13;;;;;;;10.07;3.65;;;8.90;99.90;;;;;;7343713;32;20538;-61
2022/10/03 21:28:25;;;;;;;9.88;4.05;;;8.90;99.90;;;;;;7351835;32;20095;-60
2022/10/03 21:33:01;;;;;;;6.95;3.87;;;8.80;99.90;;;;;;7349610;32;20108;-61
2022/10/03 21:37:21;;;;;;;7.32;3.95;;;8.70;99.90;;;;;;7346426;32;20763;-60
2022/10/03 21:41:32;;;;;;;7.68;3.28;;;8.70;99.90;;;;;;7351301;32;20617;-60
2022/10/03 21:45:46;;;;;;;14.40;3.75;;;8.70;99.90;;;;;;7344357;32;20134;-61
2022/10/03 21:49:58;;;;;;;11.63;3.87;;;8.60;99.90;;;;;;7348936;32;20538;-60
2022/10/03 21:54:28;;;;;;;6.50;3.62;;;8.70;99.90;;;;;;7346520;32;20099;-60
2022/10/03 21:59:05;;;;;;;8.55;4.00;;;8.70;99.90;;;;;;7341598;32;20104;-60
2022/10/03 22:03:21;;;;;;;6.82;3.42;;;8.70;99.90;;;;;;7345248;32;20139;-61
2022/10/03 22:07:39;;;;;;;9.35;4.10;;;8.70;99.90;;;;;;7349620;32;20127;-60
2022/10/03 22:11:53;;;;;;;18.50;3.92;;;8.80;99.90;;;;;;7344334;32;20262;-60
2022/10/03 22:16:30;;;;;;;13.13;4.70;;;8.80;99.90;;;;;;7346425;32;20111;-61
2022/10/03 22:20:33;;;;;;;8.85;3.70;;;8.80;99.90;;;;;;7345996;32;20274;-59
2022/10/03 22:24:43;;;;;;;11.75;3.70;;;8.80;99.90;;;;;;7347816;32;20130;-60
2022/10/03 22:29:18;;;;;;;15.20;3.90;;;8.80;99.90;;;;;;7346740;32;20546;-60
2022/10/03 22:33:54;;;;;;;10.30;3.80;;;8.60;99.90;;;;;;7344859;32;20130;-60
2022/10/03 22:37:56;;;;;;;9.07;3.95;;;8.60;99.90;;;;;;7337700;32;20115;-61
2022/10/03 22:42:00;;;;;;;7.87;4.00;;;8.50;99.90;;;;;;7344592;32;20099;-61
2022/10/03 22:46:04;;;;;;;11.25;4.05;;;8.50;99.90;;;;;;7348786;32;20183;-61
2022/10/03 22:50:11;;;;;;;7.10;3.53;;;8.40;99.90;;;;;;7352044;32;20505;-60
2022/10/03 22:54:14;;;;;;;;;;;8.40;99.90;;;;;;7345922;32;20726;-61